Historique des mesures à Cassis (13260), France
Quotidien Résumé Fevrier 3, 2017 Unités:  Métrique    US   Métrique/US
« Précédent (Jour)
Suivant (Jour) »
Quotidien Hebdomadaire Mensuel Annuel Période au choix
  Maximum: Minimum: Moyenne:
Température: TemperatureC °C 9.5 °C 11.9 °C
Point de rosée: DewpointC °C 4.3 °C 7.8 °C
Humidité: Humidity % 61 % 72 %
Vitesse du vent: 0 km/h 0 km/h 4.3 km/h
Rafales: 0 km/h - -
Vent:- - WSW
Pression: PressurehPa hPa 1007.7 hPa -
Précipitations: 2.0 mm    
Historical Graphs
 
 
Mesures pour : Fevrier 3, 2017
Heure Temperature Point de rosée Pression Vent Vitesse du vent Rafales Humidité Pluie (par heure) Conditions
TemperatureC °C DewpointC °C PressurehPa hPa Calm     Humidity % HourlyPrecipMM mm SoftwareType W/m2
00:10 13.6 °C 10.9 °C 1010.0 hPa Calm     84 % 1.0 mm open2300-1.11 W/m2
01:11 13.4 °C 10.7 °C 1009.7 hPa SW 9.3 km/h 9.3 km/h 84 % 0.0 mm open2300-1.11 W/m2
02:10 13.6 °C 11.1 °C 1010.0 hPa SSW 15 km/h 15 km/h 85 % 0.0 mm open2300-1.11 W/m2
03:11 13.7 °C 11.2 °C 1009.4 hPa ESE 2.3 km/h 2.3 km/h 85 % 0.0 mm open2300-1.11 W/m2
04:10 12.9 °C 9.9 °C 1009.7 hPa Calm     82 % 0.0 mm open2300-1.11 W/m2
05:11 11.8 °C 7.7 °C 1009.4 hPa Calm   7.6 km/h 76 % 0.0 mm open2300-1.11 W/m2
06:10 10.3 °C 6.2 °C 1009.7 hPa NNW 2.3 km/h 6.9 km/h 76 % 0.0 mm open2300-1.11 W/m2
07:11 9.9 °C 6.2 °C 1010.0 hPa Calm     78 % 0.0 mm open2300-1.11 W/m2
08:10 9.5 °C 6.0 °C 1010.0 hPa Calm     79 % 0.0 mm open2300-1.11 W/m2
09:11 10.9 °C 7.4 °C 1010.0 hPa Calm     79 % 0.0 mm open2300-1.11 W/m2
10:10 11.9 °C 8.2 °C 1009.7 hPa Calm     78 % 0.0 mm open2300-1.11 W/m2
11:11 12.9 °C 8.9 °C 1010.0 hPa Calm     77 % 0.0 mm open2300-1.11 W/m2
12:10 13.4 °C 9.2 °C 1009.7 hPa Calm   5.6 km/h 76 % 0.0 mm open2300-1.11 W/m2
13:11 14.1 °C 8.4 °C 1009.0 hPa Calm   5.1 km/h 69 % 0.0 mm open2300-1.11 W/m2
14:10 14.1 °C 9.5 °C 1008.4 hPa Calm     74 % 0.0 mm open2300-1.11 W/m2
15:11 14.0 °C 9.6 °C 1008.4 hPa Calm   6.9 km/h 75 % 0.0 mm open2300-1.11 W/m2
16:10 14.1 °C 9.5 °C 1008.0 hPa Calm     74 % 0.0 mm open2300-1.11 W/m2
17:11 13.1 °C 9.5 °C 1007.7 hPa Calm     79 % 2.0 mm open2300-1.11 W/m2
18:10 12.6 °C 9.1 °C 1009.0 hPa WSW 2.3 km/h 15.6 km/h 79 % 0.0 mm open2300-1.11 W/m2
19:11 12.2 °C 6.4 °C 1008.7 hPa NNW 23.8 km/h 23.8 km/h 68 % 0.0 mm open2300-1.11 W/m2
20:10 12.2 °C 5.3 °C 1009.0 hPa NW 52 km/h 52 km/h 63 % 0.0 mm open2300-1.11 W/m2
21:11 11.6 °C 4.3 °C 1009.0 hPa Calm   11.6 km/h 61 % 0.0 mm open2300-1.11 W/m2
22:10 11.8 °C 4.7 °C 1009.4 hPa Calm     62 % 0.0 mm open2300-1.11 W/m2
23:11 11.1 °C 4.7 °C 1010.4 hPa Calm     65 % 0.0 mm open2300-1.11 W/m2
Observations météo à CASSIS
WU-History script by Weather Underground - 1 mb